createdAt,value
2022-08-08T00:00:53.091Z,97286.40
2022-08-08T00:03:32.468Z,97279.74
2022-08-08T00:06:54.090Z,97277.92
2022-08-08T00:09:39.950Z,97280.04
2022-08-08T00:12:29.474Z,97282.55
2022-08-08T00:15:56.932Z,97283.16
2022-08-08T00:19:17.312Z,97284.15
2022-08-08T00:25:44.863Z,97288.60
2022-08-08T00:32:28.682Z,97290.20
2022-08-08T00:35:32.687Z,97292.27
2022-08-08T00:38:51.733Z,97291.29
2022-08-08T00:42:42.175Z,97298.73
2022-08-08T00:45:41.116Z,97299.63
2022-08-08T00:49:24.647Z,97301.50
2022-08-08T00:56:09.356Z,97303.88
2022-08-08T00:59:44.624Z,97305.77
2022-08-08T01:03:58.262Z,97307.64
2022-08-08T01:06:05.204Z,97312.59
2022-08-08T01:10:00.386Z,97310.85
2022-08-08T01:13:43.448Z,97308.72
2022-08-08T01:16:57.815Z,97303.53
2022-08-08T01:20:21.829Z,97301.39
2022-08-08T01:24:05.706Z,97300.33
2022-08-08T01:27:01.110Z,97297.11
2022-08-08T01:38:22.334Z,97289.44
2022-08-08T01:45:37.710Z,97287.93
2022-08-08T01:48:54.406Z,97283.74
2022-08-08T01:52:42.238Z,97286.61
2022-08-08T01:56:26.164Z,97285.08
2022-08-08T01:58:38.843Z,97282.80
2022-08-08T02:02:33.949Z,97289.17
2022-08-08T02:05:56.226Z,97288.23
2022-08-08T02:08:50.971Z,97285.09
2022-08-08T02:11:59.859Z,97281.11
2022-08-08T02:15:02.955Z,97274.07
2022-08-08T02:18:01.076Z,97276.08
2022-08-08T02:21:17.934Z,97271.22
2022-08-08T02:27:14.264Z,97270.16
2022-08-08T02:30:25.655Z,97266.86
2022-08-08T02:34:00.134Z,97265.70
2022-08-08T02:36:59.643Z,97268.50
2022-08-08T02:40:13.611Z,97271.69
2022-08-08T02:44:39.236Z,97275.48
2022-08-08T02:46:54.395Z,97278.08
2022-08-08T02:53:21.291Z,97276.23
2022-08-08T02:56:39.548Z,97276.19
2022-08-08T03:00:26.904Z,97275.17
2022-08-08T03:05:00.590Z,97271.67
2022-08-08T03:07:07.288Z,97280.51
2022-08-08T03:10:32.995Z,97283.93
2022-08-08T03:16:00.294Z,97290.83
2022-08-08T03:20:10.597Z,97290.83
2022-08-08T03:23:04.876Z,97292.55
2022-08-08T03:25:38.570Z,97295.85
2022-08-08T03:32:20.427Z,97303.11
2022-08-08T03:35:20.195Z,97299.46
2022-08-08T03:38:55.863Z,97301.20
2022-08-08T03:41:14.370Z,97299.10
2022-08-08T03:44:31.739Z,97302.36
2022-08-08T03:47:45.728Z,97304.73
2022-08-08T03:50:24.597Z,97303.48
2022-08-08T03:53:02.698Z,97304.63
2022-08-08T03:55:58.315Z,97308.29
2022-08-08T03:58:56.183Z,97308.52
2022-08-08T04:02:32.829Z,97314.75
2022-08-08T04:09:10.669Z,97318.60
2022-08-08T04:11:57.830Z,97319.83
2022-08-08T04:15:13.850Z,97322.96
2022-08-08T04:18:24.590Z,97323.59
2022-08-08T04:21:41.204Z,97327.95
2022-08-08T04:28:02.832Z,97330.61
2022-08-08T04:30:50.602Z,97335.95
2022-08-08T04:33:46.118Z,97335.02
2022-08-08T04:36:37.016Z,97331.84
2022-08-08T04:40:04.818Z,97327.17
2022-08-08T04:49:13.658Z,97331.61
2022-08-08T04:52:06.563Z,97325.63
2022-08-08T04:54:57.525Z,97322.23
2022-08-08T05:00:55.653Z,97335.20
2022-08-08T05:07:12.017Z,97338.65
2022-08-08T05:10:05.452Z,97344.13
2022-08-08T05:16:54.930Z,97343.07
2022-08-08T05:20:10.731Z,97345.93
2022-08-08T05:22:14.002Z,97350.77
2022-08-08T05:27:44.288Z,97353.73
2022-08-08T05:30:27.956Z,97355.98
2022-08-08T05:33:03.385Z,97359.29
2022-08-08T05:35:39.830Z,97357.92
2022-08-08T05:44:51.664Z,97370.23
2022-08-08T05:48:00.759Z,97373.27
2022-08-08T05:51:48.940Z,97372.24
2022-08-08T06:00:58.564Z,97373.32
2022-08-08T06:03:53.651Z,97370.03
2022-08-08T06:06:32.477Z,97366.59
2022-08-08T06:10:00.922Z,97367.88
2022-08-08T06:22:33.330Z,97371.43
2022-08-08T06:25:11.252Z,97373.13
2022-08-08T06:31:18.885Z,97375.75
2022-08-08T06:34:25.842Z,97377.50
2022-08-08T06:40:29.134Z,97382.67
2022-08-08T06:43:28.630Z,97381.91
2022-08-08T06:46:44.965Z,97388.98
2022-08-08T06:49:54.980Z,97390.27
2022-08-08T06:53:09.644Z,97394.20
2022-08-08T06:56:19.923Z,97396.17
2022-08-08T06:59:14.876Z,97396.16
2022-08-08T07:02:28.853Z,97399.02
2022-08-08T07:05:07.814Z,97404.55
2022-08-08T07:08:10.965Z,97402.17
2022-08-08T07:11:50.642Z,97400.10
2022-08-08T07:15:11.469Z,97397.39
2022-08-08T07:21:41.147Z,97403.02
2022-08-08T07:54:02.401Z,97396.24
2022-08-08T07:57:21.166Z,97400.31
2022-08-08T08:00:32.785Z,97399.63
2022-08-08T08:10:07.393Z,97405.76
2022-08-08T08:16:20.651Z,97402.58
2022-08-08T08:22:59.532Z,97402.58
2022-08-08T08:29:51.932Z,97410.30
2022-08-08T08:32:36.024Z,97411.45
2022-08-08T08:38:55.733Z,97411.91
2022-08-08T08:42:09.150Z,97409.70
2022-08-08T08:45:23.519Z,97406.63
2022-08-08T08:48:57.318Z,97403.84
2022-08-08T08:57:57.287Z,97400.62
2022-08-08T09:01:08.525Z,97400.52
2022-08-08T09:04:31.500Z,97392.77
2022-08-08T09:11:19.836Z,97386.14
2022-08-08T09:14:51.468Z,97386.49
2022-08-08T09:17:55.771Z,97384.13
2022-08-08T09:31:42.679Z,97373.61
2022-08-08T09:34:45.668Z,97369.04
2022-08-08T09:38:20.576Z,97367.84
2022-08-08T09:44:06.930Z,97366.05
2022-08-08T09:48:10.269Z,97362.45
2022-08-08T09:50:36.461Z,97366.33
2022-08-08T09:56:55.307Z,97364.31
2022-08-08T10:00:21.081Z,97361.38
2022-08-08T10:03:05.628Z,97358.44
2022-08-08T10:06:38.174Z,97357.71
2022-08-08T10:13:19.304Z,97347.66
2022-08-08T10:16:03.668Z,97346.52
2022-08-08T10:25:01.430Z,97343.64
2022-08-08T10:27:43.730Z,97334.39
2022-08-08T10:34:19.810Z,97331.90
2022-08-08T10:36:53.772Z,97322.19
2022-08-08T10:39:54.793Z,97323.44
2022-08-08T10:43:23.530Z,97315.87
2022-08-08T10:50:01.989Z,97310.86
2022-08-08T10:56:10.834Z,97301.32
2022-08-08T10:59:39.658Z,97296.61
2022-08-08T11:02:14.332Z,97292.52
2022-08-08T11:04:53.289Z,97292.77
2022-08-08T11:08:30.955Z,97290.17
2022-08-08T11:11:32.068Z,97288.15
2022-08-08T11:14:06.248Z,97283.82
2022-08-08T11:16:58.439Z,97280.01
2022-08-08T11:25:57.142Z,97267.20
2022-08-08T11:29:22.909Z,97258.34
2022-08-08T11:32:22.211Z,97259.26
2022-08-08T11:35:23.461Z,97254.48
2022-08-08T11:38:36.887Z,97252.80
2022-08-08T11:44:39.389Z,97247.29
2022-08-08T11:47:39.205Z,97246.24
2022-08-08T11:53:42.759Z,97231.61
2022-08-08T11:56:23.594Z,97233.94
2022-08-08T12:00:01.978Z,97229.23
2022-08-08T12:06:02.086Z,97220.52
2022-08-08T12:08:53.898Z,97213.34
2022-08-08T12:11:44.251Z,97207.54
2022-08-08T12:20:42.942Z,97205.55
2022-08-08T12:23:59.319Z,97192.83
2022-08-08T12:27:45.270Z,97190.45
2022-08-08T12:34:20.977Z,97175.68
2022-08-08T12:37:08.842Z,97173.04
2022-08-08T12:40:02.193Z,97169.88
2022-08-08T12:42:48.008Z,97166.13
2022-08-08T12:45:58.382Z,97159.98
2022-08-08T12:51:28.641Z,97152.55
2022-08-08T12:54:47.877Z,97150.75
2022-08-08T12:57:26.360Z,97144.92
2022-08-08T13:00:20.140Z,97142.30
2022-08-08T13:03:49.065Z,97146.17
2022-08-08T13:10:04.459Z,97141.64
2022-08-08T13:13:05.920Z,97157.99
2022-08-08T13:15:42.198Z,97163.96
2022-08-08T13:18:55.754Z,97169.02
2022-08-08T13:25:37.770Z,97190.61
2022-08-08T13:28:27.194Z,97191.40
2022-08-08T13:31:17.328Z,97201.31
2022-08-08T13:35:01.526Z,97204.08
2022-08-08T13:38:06.101Z,97210.56
2022-08-08T13:41:38.890Z,97228.90
2022-08-08T13:44:30.014Z,97241.52
2022-08-08T13:47:22.054Z,97240.95
2022-08-08T13:50:57.858Z,97250.84
2022-08-08T13:54:22.494Z,97261.48
2022-08-08T13:57:46.468Z,97263.01
2022-08-08T14:04:53.351Z,97272.46
2022-08-08T14:08:29.766Z,97274.66
2022-08-08T14:18:36.841Z,97354.28
2022-08-08T14:21:20.428Z,97396.92
2022-08-08T14:24:04.508Z,97438.34
2022-08-08T14:27:17.475Z,97483.11
2022-08-08T14:33:44.979Z,97546.96
2022-08-08T14:42:55.462Z,97598.86
2022-08-08T14:46:32.689Z,97577.18
2022-08-08T14:49:51.610Z,97532.52
2022-08-08T14:58:42.029Z,97476.64
2022-08-08T15:01:37.510Z,97455.38
2022-08-08T15:04:33.466Z,97437.55
2022-08-08T15:07:42.258Z,97430.05
2022-08-08T15:10:43.327Z,97430.71
2022-08-08T15:14:03.228Z,97446.08
2022-08-08T15:16:53.126Z,97460.30
2022-08-08T15:22:17.973Z,97448.85
2022-08-08T15:25:17.247Z,97429.68
2022-08-08T15:28:33.877Z,97419.11
2022-08-08T15:31:10.421Z,97420.41
2022-08-08T15:33:59.972Z,97427.59
2022-08-08T15:36:32.609Z,97428.30
2022-08-08T15:39:22.385Z,97432.45
2022-08-08T15:42:39.707Z,97430.11
2022-08-08T15:45:30.718Z,97434.14
2022-08-08T15:48:40.731Z,97445.33
2022-08-08T15:51:15.549Z,97443.09
2022-08-08T15:54:38.500Z,97441.52
2022-08-08T16:00:54.161Z,97420.89
2022-08-08T16:14:01.009Z,97449.44
2022-08-08T16:16:33.390Z,97449.77
2022-08-08T16:22:31.151Z,97451.90
2022-08-08T16:25:22.263Z,97455.99
2022-08-08T16:28:35.665Z,97461.21
2022-08-08T16:31:09.920Z,97445.56
2022-08-08T16:34:18.050Z,97451.54
2022-08-08T16:37:27.892Z,97455.08
2022-08-08T16:40:34.768Z,97453.27
2022-08-08T16:43:25.130Z,97462.16
2022-08-08T16:50:20.108Z,97465.86
2022-08-08T16:55:05.726Z,97469.59
2022-08-08T16:57:01.973Z,97473.06
2022-08-08T17:00:11.911Z,97467.52
2022-08-08T17:06:39.731Z,97457.41
2022-08-08T17:09:16.008Z,97465.66
2022-08-08T17:12:53.029Z,97467.52
2022-08-08T17:19:08.293Z,97473.73
2022-08-08T17:22:38.857Z,97476.14
2022-08-08T17:28:53.985Z,97468.33
2022-08-08T17:31:44.243Z,97470.81
2022-08-08T17:38:04.916Z,97470.59
2022-08-08T17:40:54.652Z,97475.39
2022-08-08T17:43:27.482Z,97482.59
2022-08-08T17:45:59.857Z,97482.96
2022-08-08T17:52:16.859Z,97487.31
2022-08-08T17:54:55.825Z,97491.64
2022-08-08T17:57:46.267Z,97492.66
2022-08-08T18:00:25.908Z,97493.98
2022-08-08T18:03:22.927Z,97495.59
2022-08-08T18:06:30.664Z,97488.63
2022-08-08T18:09:03.779Z,97489.63
2022-08-08T18:12:13.234Z,97480.36
2022-08-08T18:18:31.647Z,97478.03
2022-08-08T18:25:12.964Z,97460.23
2022-08-08T18:28:05.262Z,97458.94
2022-08-08T18:31:13.492Z,97455.42
2022-08-08T18:39:49.919Z,97458.57
2022-08-08T18:46:06.198Z,97459.73
2022-08-08T18:48:58.880Z,97463.60
2022-08-08T18:51:54.107Z,97470.86
2022-08-08T18:57:47.944Z,97465.84
2022-08-08T19:00:21.653Z,97469.16
2022-08-08T19:03:28.666Z,97469.88
2022-08-08T19:06:38.731Z,97465.74
2022-08-08T19:10:13.709Z,97468.63
2022-08-08T19:12:44.732Z,97470.91
2022-08-08T19:15:33.868Z,97473.86
2022-08-08T19:21:01.545Z,97476.95
2022-08-08T19:27:57.397Z,97476.92
2022-08-08T19:30:51.494Z,97475.09
2022-08-08T19:34:35.899Z,97481.73
2022-08-08T19:37:04.127Z,97491.55
2022-08-08T19:42:26.925Z,97493.50
2022-08-08T19:45:58.478Z,97491.82
2022-08-08T19:48:50.347Z,97493.84
2022-08-08T19:51:43.597Z,97493.35
2022-08-08T19:54:56.730Z,97491.74
2022-08-08T19:57:50.937Z,97493.20
2022-08-08T20:01:07.012Z,97495.81
2022-08-08T20:04:07.114Z,97499.85
2022-08-08T20:14:12.942Z,97504.16
2022-08-08T20:19:48.723Z,97505.45
2022-08-08T20:25:49.310Z,97513.42
2022-08-08T20:29:00.415Z,97514.95
2022-08-08T20:32:06.896Z,97510.96
2022-08-08T20:38:32.246Z,97509.05
2022-08-08T20:42:17.255Z,97510.27
2022-08-08T20:48:01.427Z,97516.60
2022-08-08T20:54:27.405Z,97518.81
2022-08-08T20:57:36.170Z,97522.23
2022-08-08T21:00:17.431Z,97518.50
2022-08-08T21:02:52.529Z,97512.60
2022-08-08T21:06:17.513Z,97515.17
2022-08-08T21:08:51.257Z,97514.12
2022-08-08T21:12:03.212Z,97519.16
2022-08-08T21:16:04.909Z,97523.66
2022-08-08T21:18:57.772Z,97526.54
2022-08-08T21:21:39.534Z,97527.66
2022-08-08T21:24:24.068Z,97525.75
2022-08-08T21:27:03.072Z,97520.92
2022-08-08T21:30:05.561Z,97526.95
2022-08-08T21:36:16.950Z,97529.92
2022-08-08T21:39:08.232Z,97529.78
2022-08-08T21:42:35.977Z,97529.48
2022-08-08T21:51:11.449Z,97544.73
2022-08-08T21:54:36.543Z,97546.14
2022-08-08T21:57:15.104Z,97546.08
2022-08-08T22:00:07.911Z,97547.30
2022-08-08T22:03:21.205Z,97547.07
2022-08-08T22:09:02.628Z,97550.86
2022-08-08T22:12:04.916Z,97546.58
2022-08-08T22:14:59.456Z,97548.69
2022-08-08T22:17:41.475Z,97555.86
2022-08-08T22:20:23.421Z,97560.66
2022-08-08T22:22:56.797Z,97557.91
2022-08-08T22:26:26.731Z,97557.52
2022-08-08T22:29:59.573Z,97553.80
2022-08-08T22:32:51.368Z,97553.85
2022-08-08T22:39:11.864Z,97551.91
2022-08-08T22:42:47.381Z,97550.77
2022-08-08T22:45:54.719Z,97547.95
2022-08-08T22:51:57.736Z,97558.75
2022-08-08T22:54:34.448Z,97567.70
2022-08-08T23:04:14.806Z,97551.48
2022-08-08T23:07:51.786Z,97551.08
2022-08-08T23:11:13.363Z,97549.91
2022-08-08T23:14:03.221Z,97540.34
2022-08-08T23:17:12.519Z,97544.17
2022-08-08T23:20:43.205Z,97546.83
2022-08-08T23:23:48.119Z,97553.08
2022-08-08T23:30:09.453Z,97549.93
2022-08-08T23:32:41.832Z,97548.59
2022-08-08T23:39:00.561Z,97540.73
2022-08-08T23:44:58.775Z,97544.09
2022-08-08T23:49:08.147Z,97543.97
2022-08-08T23:55:14.454Z,97538.48
2022-08-08T23:58:35.736Z,97534.86
